createdAt,value
2023-11-25T00:00:56.939Z,18.05
2023-11-25T00:03:23.740Z,18.04
2023-11-25T00:05:50.695Z,15.30
2023-11-25T00:08:17.594Z,14.77
2023-11-25T00:10:44.465Z,14.82
2023-11-25T00:13:11.051Z,14.40
2023-11-25T00:15:38.395Z,14.34
2023-11-25T00:18:05.012Z,14.37
2023-11-25T00:20:31.562Z,14.33
2023-11-25T00:22:58.098Z,14.28
2023-11-25T00:25:24.672Z,14.49
2023-11-25T00:27:51.453Z,14.33
2023-11-25T00:30:17.954Z,18.19
2023-11-25T00:32:44.590Z,14.69
2023-11-25T00:35:11.255Z,14.33
2023-11-25T00:37:38.533Z,14.62
2023-11-25T00:40:05.841Z,14.65
2023-11-25T00:42:32.457Z,14.73
2023-11-25T00:44:59.128Z,14.85
2023-11-25T00:47:25.773Z,15.08
2023-11-25T00:49:52.394Z,14.42
2023-11-25T00:52:18.988Z,14.50
2023-11-25T00:54:45.603Z,14.35
2023-11-25T00:57:12.201Z,14.23
2023-11-25T00:59:38.675Z,14.18
2023-11-25T01:02:05.266Z,14.10
2023-11-25T01:04:31.853Z,13.92
2023-11-25T01:06:58.408Z,14.09
2023-11-25T01:09:25.119Z,13.75
2023-11-25T01:11:51.622Z,13.64
2023-11-25T01:14:18.221Z,14.43
2023-11-25T01:16:44.837Z,16.93
2023-11-25T01:19:11.494Z,18.57
2023-11-25T01:21:38.122Z,17.84
2023-11-25T01:24:04.922Z,17.37
2023-11-25T01:26:31.461Z,21.28
2023-11-25T01:28:58.105Z,15.85
2023-11-25T01:31:24.691Z,14.37
2023-11-25T01:33:51.198Z,14.34
2023-11-25T01:36:17.791Z,14.10
2023-11-25T01:38:44.298Z,14.56
2023-11-25T01:41:11.262Z,14.60
2023-11-25T01:43:37.831Z,14.91
2023-11-25T01:46:05.829Z,14.86
2023-11-25T01:48:32.450Z,15.03
2023-11-25T01:51:00.441Z,15.81
2023-11-25T01:53:28.229Z,15.51
2023-11-25T01:55:55.369Z,16.12
2023-11-25T01:58:21.949Z,15.78
2023-11-25T02:00:49.968Z,15.48
2023-11-25T02:03:17.547Z,15.49
2023-11-25T02:05:44.784Z,15.56
2023-11-25T02:08:11.493Z,15.25
2023-11-25T02:10:38.000Z,14.99
2023-11-25T02:13:04.662Z,14.84
2023-11-25T02:15:31.387Z,15.07
2023-11-25T02:17:58.039Z,14.93
2023-11-25T02:20:40.648Z,14.91
2023-11-25T02:23:16.735Z,15.68
2023-11-25T02:25:50.835Z,15.11
2023-11-25T02:28:18.195Z,15.90
2023-11-25T02:30:44.730Z,15.73
2023-11-25T02:33:11.358Z,15.99
2023-11-25T02:35:37.921Z,14.59
2023-11-25T02:38:04.471Z,14.61
2023-11-25T02:40:31.012Z,14.79
2023-11-25T02:42:57.599Z,14.57
2023-11-25T02:45:24.871Z,14.77
2023-11-25T02:47:52.256Z,15.22
2023-11-25T02:50:19.535Z,14.86
2023-11-25T02:52:46.453Z,15.23
2023-11-25T02:55:13.209Z,15.36
2023-11-25T02:57:40.716Z,15.08
2023-11-25T03:00:08.103Z,15.08
2023-11-25T03:02:34.769Z,15.93
2023-11-25T03:05:01.375Z,14.98
2023-11-25T03:07:28.071Z,14.96
2023-11-25T03:09:54.649Z,17.41
2023-11-25T03:12:21.147Z,17.46
2023-11-25T03:14:47.629Z,16.20
2023-11-25T03:17:14.209Z,16.38
2023-11-25T03:19:41.049Z,18.33
2023-11-25T03:22:07.659Z,16.93
2023-11-25T03:24:34.194Z,16.88
2023-11-25T03:27:00.695Z,16.81
2023-11-25T03:29:27.250Z,16.43
2023-11-25T03:31:53.844Z,16.53
2023-11-25T03:34:20.438Z,15.66
2023-11-25T03:36:47.032Z,15.51
2023-11-25T03:39:13.717Z,15.29
2023-11-25T03:41:40.688Z,15.18
2023-11-25T03:44:07.293Z,14.98
2023-11-25T03:46:33.961Z,15.12
2023-11-25T03:49:00.530Z,15.24
2023-11-25T03:51:27.090Z,15.34
2023-11-25T03:53:53.613Z,15.65
2023-11-25T03:56:20.184Z,15.69
2023-11-25T03:58:46.782Z,16.03
2023-11-25T04:01:13.319Z,16.45
2023-11-25T04:03:39.908Z,16.61
2023-11-25T04:06:06.787Z,16.64
2023-11-25T04:08:33.343Z,16.81
2023-11-25T04:11:00.841Z,16.99
2023-11-25T04:13:27.318Z,23.53
2023-11-25T04:15:53.858Z,19.05
2023-11-25T04:18:20.456Z,18.75
2023-11-25T04:20:47.011Z,17.50
2023-11-25T04:23:14.011Z,16.81
2023-11-25T04:25:40.585Z,16.73
2023-11-25T04:28:07.253Z,16.78
2023-11-25T04:30:33.840Z,16.75
2023-11-25T04:33:00.650Z,16.78
2023-11-25T04:35:27.342Z,17.44
2023-11-25T04:37:53.944Z,21.45
2023-11-25T04:40:20.491Z,24.04
2023-11-25T04:42:47.094Z,25.35
2023-11-25T04:45:13.671Z,24.88
2023-11-25T04:47:40.344Z,23.18
2023-11-25T04:50:07.364Z,21.40
2023-11-25T04:52:33.926Z,20.73
2023-11-25T04:55:00.546Z,20.34
2023-11-25T04:57:27.130Z,22.98
2023-11-25T04:59:53.680Z,23.24
2023-11-25T05:02:20.355Z,17.40
2023-11-25T05:04:47.463Z,18.39
2023-11-25T05:07:14.022Z,17.06
2023-11-25T05:09:40.542Z,16.51
2023-11-25T05:12:07.517Z,16.74
2023-11-25T05:14:34.560Z,17.04
2023-11-25T05:17:01.278Z,17.13
2023-11-25T05:19:27.947Z,16.98
2023-11-25T05:21:54.501Z,16.73
2023-11-25T05:24:21.041Z,16.75
2023-11-25T05:26:47.604Z,16.70
2023-11-25T05:29:14.102Z,16.81
2023-11-25T05:31:40.609Z,16.22
2023-11-25T05:34:07.215Z,16.36
2023-11-25T05:36:33.900Z,16.19
2023-11-25T05:39:00.842Z,17.38
2023-11-25T05:41:28.284Z,16.26
2023-11-25T05:44:01.010Z,16.02
2023-11-25T05:46:27.620Z,16.17
2023-11-25T05:48:54.393Z,16.11
2023-11-25T05:51:21.632Z,16.18
2023-11-25T05:53:48.439Z,16.16
2023-11-25T05:56:14.996Z,16.24
2023-11-25T05:58:41.567Z,15.84
2023-11-25T06:01:08.216Z,15.93
2023-11-25T06:03:34.862Z,16.05
2023-11-25T06:06:01.815Z,16.14
2023-11-25T06:08:28.293Z,16.26
2023-11-25T06:10:57.305Z,16.16
2023-11-25T06:13:23.933Z,15.93
2023-11-25T06:15:50.517Z,15.97
2023-11-25T06:18:17.165Z,16.04
2023-11-25T06:20:43.807Z,15.97
2023-11-25T06:23:10.328Z,15.80
2023-11-25T06:25:36.923Z,15.96
2023-11-25T06:28:03.703Z,15.83
2023-11-25T06:30:30.296Z,15.87
2023-11-25T06:32:56.905Z,15.70
2023-11-25T06:35:23.419Z,15.66
2023-11-25T06:37:50.183Z,15.66
2023-11-25T06:40:16.875Z,15.69
2023-11-25T06:42:43.565Z,16.97
2023-11-25T06:45:10.319Z,15.66
2023-11-25T06:47:36.903Z,15.71
2023-11-25T06:50:03.685Z,15.82
2023-11-25T06:52:30.239Z,16.01
2023-11-25T06:54:56.884Z,15.91
2023-11-25T06:57:23.520Z,15.99
2023-11-25T06:59:50.072Z,15.89
2023-11-25T07:02:16.742Z,16.07
2023-11-25T07:04:43.462Z,16.17
2023-11-25T07:07:10.079Z,16.15
2023-11-25T07:09:36.770Z,16.06
2023-11-25T07:12:03.583Z,16.12
2023-11-25T07:14:30.144Z,16.08
2023-11-25T07:16:56.674Z,16.56
2023-11-25T07:19:23.265Z,16.76
2023-11-25T07:21:49.980Z,16.76
2023-11-25T07:24:16.503Z,16.99
2023-11-25T07:26:43.000Z,17.16
2023-11-25T07:29:09.593Z,17.07
2023-11-25T07:31:36.696Z,17.13
2023-11-25T07:34:03.963Z,17.18
2023-11-25T07:36:30.587Z,17.45
2023-11-25T07:38:57.153Z,17.60
2023-11-25T07:41:23.641Z,17.95
2023-11-25T07:43:50.180Z,18.17
2023-11-25T07:46:16.819Z,17.81
2023-11-25T07:48:43.358Z,18.19
2023-11-25T07:51:09.926Z,18.04
2023-11-25T07:53:36.475Z,18.45
2023-11-25T07:56:03.204Z,18.64
2023-11-25T07:58:29.861Z,19.06
2023-11-25T08:00:56.497Z,19.07
2023-11-25T08:03:23.179Z,19.20
2023-11-25T08:05:49.770Z,19.03
2023-11-25T08:08:16.341Z,19.64
2023-11-25T08:10:42.978Z,19.40
2023-11-25T08:13:09.618Z,19.54
2023-11-25T08:15:36.146Z,19.35
2023-11-25T08:18:02.948Z,19.61
2023-11-25T08:20:29.589Z,19.62
2023-11-25T08:22:56.210Z,20.01
2023-11-25T08:25:22.858Z,20.14
2023-11-25T08:27:51.005Z,20.51
2023-11-25T08:30:17.581Z,20.84
2023-11-25T08:32:44.955Z,20.61
2023-11-25T08:35:13.034Z,20.67
2023-11-25T08:37:40.682Z,20.90
2023-11-25T08:40:12.131Z,20.60
2023-11-25T08:42:38.634Z,20.65
2023-11-25T08:45:05.691Z,20.77
2023-11-25T08:47:32.326Z,20.99
2023-11-25T08:49:59.006Z,21.09
2023-11-25T08:52:25.631Z,21.08
2023-11-25T08:54:52.164Z,21.15
2023-11-25T08:57:18.748Z,21.07
2023-11-25T08:59:45.869Z,20.92
2023-11-25T09:02:12.554Z,21.22
2023-11-25T09:04:42.130Z,21.27
2023-11-25T09:07:08.733Z,21.58
2023-11-25T09:09:35.329Z,21.49
2023-11-25T09:12:02.016Z,23.33
2023-11-25T09:14:28.568Z,21.93
2023-11-25T09:16:55.151Z,22.27
2023-11-25T09:19:21.749Z,22.29
2023-11-25T09:21:48.314Z,22.29
2023-11-25T09:24:14.865Z,22.35
2023-11-25T09:26:41.563Z,22.44
2023-11-25T09:29:08.075Z,22.63
2023-11-25T09:31:34.700Z,22.89
2023-11-25T09:34:01.339Z,22.74
2023-11-25T09:36:27.828Z,22.61
2023-11-25T09:38:54.486Z,22.50
2023-11-25T09:41:21.120Z,22.37
2023-11-25T09:43:47.768Z,22.60
2023-11-25T09:46:15.001Z,22.88
2023-11-25T09:48:41.641Z,22.56
2023-11-25T09:51:08.933Z,22.70
2023-11-25T09:53:38.330Z,22.87
2023-11-25T09:56:07.282Z,22.87
2023-11-25T09:58:36.256Z,22.86
2023-11-25T10:01:04.020Z,22.75
2023-11-25T10:03:35.057Z,22.41
2023-11-25T10:06:02.758Z,23.02
2023-11-25T10:08:29.870Z,22.87
2023-11-25T10:11:07.334Z,22.30
2023-11-25T10:13:40.236Z,22.30
2023-11-25T10:16:08.003Z,22.51
2023-11-25T10:18:37.123Z,22.97
2023-11-25T10:21:05.220Z,23.53
2023-11-25T10:23:31.866Z,23.43
2023-11-25T10:25:58.680Z,23.66
2023-11-25T10:28:27.442Z,24.02
2023-11-25T10:30:57.378Z,24.09
2023-11-25T10:33:24.585Z,23.54
2023-11-25T10:35:52.117Z,23.45
2023-11-25T10:38:19.254Z,22.80
2023-11-25T10:40:46.704Z,24.18
2023-11-25T10:43:13.345Z,26.77
2023-11-25T10:45:40.016Z,23.63
2023-11-25T10:48:09.002Z,23.45
2023-11-25T10:50:35.663Z,22.90
2023-11-25T10:53:05.649Z,23.56
2023-11-25T10:55:33.558Z,24.71
2023-11-25T10:58:00.390Z,24.30
2023-11-25T11:00:30.235Z,24.58
2023-11-25T11:02:59.283Z,24.57
2023-11-25T11:05:42.540Z,24.52
2023-11-25T11:08:16.246Z,24.50
2023-11-25T11:10:59.699Z,24.35
2023-11-25T11:13:42.883Z,26.06
2023-11-25T11:16:27.907Z,25.88
2023-11-25T11:18:57.623Z,25.38
2023-11-25T11:21:33.022Z,25.20
2023-11-25T11:24:01.271Z,25.34
2023-11-25T11:26:46.629Z,24.93
2023-11-25T11:29:27.884Z,29.97
2023-11-25T11:32:07.510Z,24.78
2023-11-25T11:34:35.949Z,24.43
2023-11-25T11:37:03.657Z,24.41
2023-11-25T11:39:52.140Z,24.68
2023-11-25T11:42:25.980Z,26.22
2023-11-25T11:45:06.466Z,24.51
2023-11-25T11:47:33.311Z,24.52
2023-11-25T11:50:00.258Z,24.76
2023-11-25T11:52:27.042Z,24.76
2023-11-25T11:54:53.674Z,24.73
2023-11-25T11:57:20.342Z,24.25
2023-11-25T12:00:06.179Z,24.25
2023-11-25T12:02:33.833Z,24.19
2023-11-25T12:05:02.000Z,23.92
2023-11-25T12:07:29.007Z,23.93
2023-11-25T12:09:56.589Z,23.94
2023-11-25T12:12:23.732Z,24.06
2023-11-25T12:14:52.222Z,24.57
2023-11-25T12:17:20.601Z,24.73
2023-11-25T12:19:47.414Z,25.13
2023-11-25T12:22:15.729Z,25.63
2023-11-25T12:24:43.429Z,25.20
2023-11-25T12:27:14.073Z,24.10
2023-11-25T12:29:40.698Z,24.71
2023-11-25T12:32:07.693Z,25.70
2023-11-25T12:34:34.574Z,24.36
2023-11-25T12:37:01.551Z,24.30
2023-11-25T12:39:28.533Z,24.24
2023-11-25T12:41:55.289Z,24.28
2023-11-25T12:44:22.065Z,24.22
2023-11-25T12:47:05.227Z,24.02
2023-11-25T12:49:32.052Z,24.46
2023-11-25T12:51:58.633Z,24.06
2023-11-25T12:54:25.790Z,24.03
2023-11-25T12:56:54.235Z,24.13
2023-11-25T12:59:27.954Z,24.20
2023-11-25T13:02:02.933Z,24.82
2023-11-25T13:04:30.185Z,24.23
2023-11-25T13:06:56.895Z,23.65
2023-11-25T13:09:25.984Z,23.83
2023-11-25T13:11:52.598Z,23.64
2023-11-25T13:14:19.411Z,24.43
2023-11-25T13:16:46.194Z,24.70
2023-11-25T13:19:12.922Z,24.80
2023-11-25T13:21:39.835Z,24.63
2023-11-25T13:24:06.757Z,24.67
2023-11-25T13:26:33.768Z,24.43
2023-11-25T13:29:01.267Z,24.55
2023-11-25T13:31:28.519Z,25.24
2023-11-25T13:33:56.184Z,25.76
2023-11-25T13:36:23.737Z,25.13
2023-11-25T13:38:50.851Z,24.75
2023-11-25T13:41:17.512Z,24.63
2023-11-25T13:43:44.240Z,24.62
2023-11-25T13:46:10.901Z,24.81
2023-11-25T13:48:37.572Z,25.15
2023-11-25T13:51:04.216Z,26.89
2023-11-25T13:53:30.909Z,25.80
2023-11-25T13:55:57.587Z,25.98
2023-11-25T13:58:24.377Z,26.15
2023-11-25T14:00:51.182Z,26.01
2023-11-25T14:03:19.423Z,26.49
2023-11-25T14:05:46.179Z,26.41
2023-11-25T14:08:13.951Z,26.13
2023-11-25T14:10:40.709Z,27.44
2023-11-25T14:13:07.475Z,26.39
2023-11-25T14:15:34.358Z,26.58
2023-11-25T14:18:01.622Z,26.69
2023-11-25T14:20:29.844Z,26.33
2023-11-25T14:22:56.521Z,26.41
2023-11-25T14:25:23.678Z,26.19
2023-11-25T14:27:50.800Z,26.71
2023-11-25T14:30:18.135Z,26.73
2023-11-25T14:32:45.720Z,26.48
2023-11-25T14:35:12.353Z,26.36
2023-11-25T14:37:39.809Z,26.59
2023-11-25T14:40:07.609Z,26.58
2023-11-25T14:42:35.291Z,25.96
2023-11-25T14:45:02.223Z,26.02
2023-11-25T14:47:29.134Z,26.07
2023-11-25T14:49:56.045Z,25.95
2023-11-25T14:52:22.807Z,25.95
2023-11-25T14:54:49.681Z,25.95
2023-11-25T14:57:16.476Z,26.08
2023-11-25T14:59:43.444Z,26.13
2023-11-25T15:02:10.522Z,26.11
2023-11-25T15:04:37.288Z,26.13
2023-11-25T15:07:04.126Z,25.33
2023-11-25T15:09:30.788Z,24.72
2023-11-25T15:11:57.577Z,24.65
2023-11-25T15:14:24.391Z,26.21
2023-11-25T15:16:52.360Z,26.87
2023-11-25T15:19:19.477Z,25.07
2023-11-25T15:21:46.506Z,24.56
2023-11-25T15:24:13.413Z,24.19
2023-11-25T15:26:43.745Z,23.84
2023-11-25T15:29:11.597Z,23.22
2023-11-25T15:34:05.216Z,23.16
2023-11-25T15:36:31.908Z,23.11
2023-11-25T15:38:58.755Z,22.65
2023-11-25T15:41:25.474Z,22.41
2023-11-25T15:43:52.332Z,22.66
2023-11-25T15:46:19.102Z,22.42
2023-11-25T15:48:45.791Z,21.27
2023-11-25T15:51:12.601Z,20.90
2023-11-25T15:53:39.289Z,19.12
2023-11-25T15:56:07.811Z,18.15
2023-11-25T15:58:34.835Z,18.04
2023-11-25T16:01:01.632Z,17.74
2023-11-25T16:03:28.419Z,17.67
2023-11-25T16:05:55.110Z,17.75
2023-11-25T16:08:21.855Z,17.77
2023-11-25T16:10:48.560Z,17.38
2023-11-25T16:13:15.307Z,17.34
2023-11-25T16:15:41.988Z,17.19
2023-11-25T16:18:08.731Z,17.15
2023-11-25T16:20:35.390Z,17.04
2023-11-25T16:23:02.241Z,17.33
2023-11-25T16:25:28.970Z,16.75
2023-11-25T16:27:55.900Z,16.60
2023-11-25T16:30:22.651Z,16.57
2023-11-25T16:32:50.007Z,16.48
2023-11-25T16:35:17.161Z,16.50
2023-11-25T16:37:44.963Z,16.53
2023-11-25T16:40:13.038Z,16.84
2023-11-25T16:42:39.785Z,16.51
2023-11-25T16:45:07.122Z,16.51
2023-11-25T16:47:34.711Z,16.52
2023-11-25T16:50:03.143Z,16.57
2023-11-25T16:52:30.136Z,16.46
2023-11-25T16:54:56.942Z,16.41
2023-11-25T16:57:23.840Z,16.50
2023-11-25T16:59:50.584Z,16.57
2023-11-25T17:02:17.587Z,16.08
2023-11-25T17:04:44.614Z,16.13
2023-11-25T17:07:11.441Z,15.85
2023-11-25T17:09:38.091Z,15.25
2023-11-25T17:12:05.293Z,15.11
2023-11-25T17:14:31.904Z,15.06
2023-11-25T17:16:58.836Z,15.03
2023-11-25T17:19:25.622Z,15.04
2023-11-25T17:21:52.395Z,14.78
2023-11-25T17:24:19.108Z,14.69
2023-11-25T17:26:45.699Z,15.05
2023-11-25T17:29:12.419Z,14.59
2023-11-25T17:31:39.413Z,15.13
2023-11-25T17:34:06.215Z,14.53
2023-11-25T17:36:32.856Z,16.25
2023-11-25T17:39:00.345Z,14.37
2023-11-25T17:41:26.958Z,14.07
2023-11-25T17:43:53.906Z,13.94
2023-11-25T17:46:20.924Z,13.95
2023-11-25T17:48:47.630Z,13.90
2023-11-25T17:51:14.404Z,13.80
2023-11-25T17:53:41.214Z,13.79
2023-11-25T17:56:08.701Z,13.54
2023-11-25T17:58:35.499Z,13.35
2023-11-25T18:01:02.232Z,13.33
2023-11-25T18:03:28.865Z,13.28
2023-11-25T18:05:55.505Z,13.29
2023-11-25T18:08:22.199Z,13.31
2023-11-25T18:10:49.041Z,13.12
2023-11-25T18:13:15.930Z,12.78
2023-11-25T18:15:42.596Z,12.64
2023-11-25T18:18:09.436Z,12.50
2023-11-25T18:20:36.124Z,12.48
2023-11-25T18:23:02.780Z,13.22
2023-11-25T18:25:29.518Z,13.30
2023-11-25T18:27:56.336Z,12.81
2023-11-25T18:30:23.268Z,12.73
2023-11-25T18:32:50.074Z,12.59
2023-11-25T18:35:16.976Z,12.46
2023-11-25T18:37:43.698Z,12.44
2023-11-25T18:40:10.714Z,12.41
2023-11-25T18:42:37.404Z,12.24
2023-11-25T18:45:05.119Z,12.04
2023-11-25T18:47:31.923Z,12.16
2023-11-25T18:49:58.961Z,11.80
2023-11-25T18:52:25.739Z,11.75
2023-11-25T18:54:52.414Z,11.50
2023-11-25T18:57:19.107Z,11.34
2023-11-25T18:59:46.791Z,11.40
2023-11-25T19:02:13.624Z,11.28
2023-11-25T19:04:41.319Z,11.16
2023-11-25T19:07:08.212Z,11.14
2023-11-25T19:09:34.968Z,11.08
2023-11-25T19:12:01.672Z,10.99
2023-11-25T19:14:28.381Z,11.45
2023-11-25T19:16:55.225Z,11.40
2023-11-25T19:19:21.932Z,11.51
2023-11-25T19:21:48.816Z,11.61
2023-11-25T19:24:15.665Z,11.68
2023-11-25T19:26:42.397Z,11.51
2023-11-25T19:29:09.364Z,11.59
2023-11-25T19:31:37.648Z,11.65
2023-11-25T19:34:04.355Z,11.63
2023-11-25T19:36:34.264Z,11.61
2023-11-25T19:39:00.951Z,11.52
2023-11-25T19:41:27.751Z,11.48
2023-11-25T19:43:54.571Z,11.46
2023-11-25T19:46:23.938Z,14.45
2023-11-25T19:48:51.501Z,11.26
2023-11-25T19:51:20.208Z,10.88
2023-11-25T19:53:50.797Z,10.72
2023-11-25T19:56:20.176Z,11.32
2023-11-25T19:58:47.145Z,10.54
2023-11-25T20:01:16.616Z,10.24
2023-11-25T20:03:46.302Z,10.12
2023-11-25T20:06:14.641Z,10.19
2023-11-25T20:08:41.615Z,10.19
2023-11-25T20:11:09.436Z,10.07
2023-11-25T20:13:36.611Z,9.86
2023-11-25T20:16:03.465Z,9.86
2023-11-25T20:18:31.280Z,9.94
2023-11-25T20:20:57.940Z,10.20
2023-11-25T20:23:25.103Z,10.37
2023-11-25T20:25:53.102Z,9.94
2023-11-25T20:28:19.916Z,10.00
2023-11-25T20:30:47.654Z,9.49
2023-11-25T20:33:14.844Z,9.77
2023-11-25T20:35:42.955Z,10.28
2023-11-25T20:38:11.495Z,9.55
2023-11-25T20:40:40.140Z,9.40
2023-11-25T20:43:07.648Z,9.48
2023-11-25T20:45:38.354Z,9.51
2023-11-25T20:48:05.812Z,9.52
2023-11-25T20:50:32.738Z,9.75
2023-11-25T20:52:59.522Z,9.78
2023-11-25T20:55:26.252Z,9.72
2023-11-25T20:57:52.949Z,9.65
2023-11-25T21:00:19.884Z,9.53
2023-11-25T21:02:46.614Z,9.54
2023-11-25T21:05:13.570Z,9.65
2023-11-25T21:07:43.334Z,9.52
2023-11-25T21:10:10.929Z,9.47
2023-11-25T21:12:37.632Z,13.19
2023-11-25T21:15:04.649Z,12.11
2023-11-25T21:17:31.423Z,10.35
2023-11-25T21:19:58.330Z,9.44
2023-11-25T21:22:25.205Z,9.49
2023-11-25T21:24:51.893Z,9.34
2023-11-25T21:27:18.713Z,8.96
2023-11-25T21:29:45.378Z,8.61
2023-11-25T21:32:12.236Z,8.61
2023-11-25T21:34:39.044Z,9.41
2023-11-25T21:37:05.910Z,8.73
2023-11-25T21:39:32.772Z,8.70
2023-11-25T21:41:59.548Z,8.65
2023-11-25T21:44:26.388Z,8.68
2023-11-25T21:46:53.465Z,8.80
2023-11-25T21:49:20.089Z,8.80
2023-11-25T21:51:46.733Z,8.83
2023-11-25T21:54:13.351Z,8.68
2023-11-25T21:56:40.042Z,8.87
2023-11-25T21:59:06.693Z,8.96
2023-11-25T22:01:33.479Z,9.06
2023-11-25T22:04:00.288Z,9.04
2023-11-25T22:06:27.369Z,9.00
2023-11-25T22:08:54.644Z,8.87
2023-11-25T22:11:21.337Z,11.16
2023-11-25T22:13:48.473Z,8.84
2023-11-25T22:16:15.036Z,8.46
2023-11-25T22:18:41.660Z,8.34
2023-11-25T22:21:08.308Z,8.90
2023-11-25T22:23:34.837Z,8.19
2023-11-25T22:26:01.418Z,8.09
2023-11-25T22:28:27.941Z,8.15
2023-11-25T22:30:54.535Z,8.12
2023-11-25T22:33:21.092Z,8.20
2023-11-25T22:35:53.458Z,8.22
2023-11-25T22:38:25.142Z,8.25
2023-11-25T22:40:51.687Z,8.45
2023-11-25T22:43:18.298Z,8.45
2023-11-25T22:45:44.875Z,8.54
2023-11-25T22:48:11.404Z,8.60
2023-11-25T22:50:37.935Z,9.17
2023-11-25T22:53:04.607Z,8.71
2023-11-25T22:55:31.310Z,8.65
2023-11-25T22:57:57.810Z,8.58
2023-11-25T23:00:24.330Z,8.65
2023-11-25T23:02:50.965Z,8.67
2023-11-25T23:05:17.574Z,8.61
2023-11-25T23:07:44.156Z,8.71
2023-11-25T23:10:10.711Z,8.62
2023-11-25T23:12:37.259Z,8.54
2023-11-25T23:15:04.102Z,8.31
2023-11-25T23:17:30.794Z,8.17
2023-11-25T23:19:57.477Z,8.02
2023-11-25T23:22:23.997Z,7.90
2023-11-25T23:24:50.548Z,7.80
2023-11-25T23:27:17.105Z,7.67
2023-11-25T23:29:43.674Z,7.67
2023-11-25T23:32:10.406Z,7.85
2023-11-25T23:34:37.601Z,7.70
2023-11-25T23:37:04.188Z,7.62
2023-11-25T23:39:30.745Z,7.46
2023-11-25T23:41:57.222Z,7.45
2023-11-25T23:44:23.805Z,7.28
2023-11-25T23:46:50.401Z,7.22
2023-11-25T23:49:17.013Z,7.18
2023-11-25T23:51:43.563Z,7.17
2023-11-25T23:54:10.202Z,7.04
2023-11-25T23:56:36.770Z,6.94
2023-11-25T23:59:03.280Z,6.97
